createdAt,value
2022-11-17T00:01:20.240Z,13.85
2022-11-17T00:03:48.117Z,13.85
2022-11-17T00:06:15.598Z,13.93
2022-11-17T00:08:42.819Z,13.58
2022-11-17T00:11:10.292Z,13.70
2022-11-17T00:13:56.009Z,13.56
2022-11-17T00:16:23.443Z,13.69
2022-11-17T00:19:09.311Z,13.70
2022-11-17T00:21:38.743Z,13.66
2022-11-17T00:24:06.365Z,13.21
2022-11-17T00:26:34.511Z,13.51
2022-11-17T00:29:04.621Z,13.69
2022-11-17T00:31:51.792Z,13.70
2022-11-17T00:34:22.810Z,13.56
2022-11-17T00:36:53.305Z,13.59
2022-11-17T00:39:21.688Z,13.47
2022-11-17T00:41:48.864Z,13.75
2022-11-17T00:44:17.673Z,13.66
2022-11-17T00:46:45.180Z,13.34
2022-11-17T00:49:12.787Z,13.79
2022-11-17T00:51:40.181Z,13.83
2022-11-17T00:54:08.124Z,13.61
2022-11-17T00:56:35.351Z,13.62
2022-11-17T00:59:02.567Z,13.20
2022-11-17T01:01:30.271Z,13.22
2022-11-17T01:04:05.430Z,13.52
2022-11-17T01:06:36.740Z,13.32
2022-11-17T01:09:05.141Z,12.93
2022-11-17T01:11:32.605Z,13.14
2022-11-17T01:14:00.229Z,13.39
2022-11-17T01:16:27.667Z,12.95
2022-11-17T01:18:55.261Z,12.66
2022-11-17T01:21:23.284Z,13.03
2022-11-17T01:23:52.077Z,12.96
2022-11-17T01:26:20.914Z,12.94
2022-11-17T01:28:48.272Z,12.93
2022-11-17T01:31:19.447Z,12.95
2022-11-17T01:33:47.176Z,12.40
2022-11-17T01:36:15.650Z,12.72
2022-11-17T01:38:43.048Z,12.42
2022-11-17T01:41:15.093Z,12.22
2022-11-17T01:43:43.642Z,12.48
2022-11-17T01:46:15.839Z,12.43
2022-11-17T01:48:43.223Z,12.20
2022-11-17T01:51:11.418Z,12.30
2022-11-17T01:53:39.242Z,12.58
2022-11-17T01:56:07.708Z,12.32
2022-11-17T01:58:36.516Z,12.41
2022-11-17T02:01:03.893Z,12.09
2022-11-17T02:03:33.154Z,12.21
2022-11-17T02:06:03.168Z,12.05
2022-11-17T02:08:30.815Z,12.06
2022-11-17T02:10:58.084Z,12.14
2022-11-17T02:13:25.580Z,12.14
2022-11-17T02:15:52.895Z,11.99
2022-11-17T02:18:20.195Z,12.12
2022-11-17T02:20:59.957Z,11.46
2022-11-17T02:23:37.609Z,11.76
2022-11-17T02:26:22.705Z,11.59
2022-11-17T02:29:10.179Z,11.88
2022-11-17T02:31:40.373Z,11.61
2022-11-17T02:34:46.628Z,11.91
2022-11-17T02:37:25.992Z,11.75
2022-11-17T02:40:00.324Z,11.87
2022-11-17T02:42:48.431Z,11.96
2022-11-17T02:45:20.493Z,12.20
2022-11-17T02:47:48.381Z,12.31
2022-11-17T02:50:15.563Z,12.13
2022-11-17T02:52:42.743Z,12.31
2022-11-17T02:55:10.534Z,12.23
2022-11-17T02:57:38.796Z,12.32
2022-11-17T03:00:07.768Z,12.03
2022-11-17T03:02:50.593Z,12.46
2022-11-17T03:05:23.494Z,12.39
2022-11-17T03:07:57.091Z,11.93
2022-11-17T03:10:47.596Z,11.78
2022-11-17T03:13:18.035Z,12.20
2022-11-17T03:15:55.469Z,12.22
2022-11-17T03:18:35.933Z,12.01
2022-11-17T03:21:10.667Z,12.16
2022-11-17T03:23:50.126Z,12.09
2022-11-17T03:26:18.980Z,12.06
2022-11-17T03:28:46.662Z,12.10
2022-11-17T03:31:13.902Z,11.80
2022-11-17T03:33:41.123Z,12.16
2022-11-17T03:36:19.186Z,12.20
2022-11-17T03:38:48.580Z,12.34
2022-11-17T03:41:16.073Z,11.87
2022-11-17T03:43:43.236Z,11.91
2022-11-17T03:46:10.978Z,11.46
2022-11-17T03:48:41.105Z,11.31
2022-11-17T03:51:09.535Z,11.46
2022-11-17T03:53:37.220Z,11.75
2022-11-17T03:56:23.962Z,11.97
2022-11-17T03:58:55.401Z,11.17
2022-11-17T04:01:23.060Z,10.77
2022-11-17T04:03:50.549Z,11.19
2022-11-17T04:06:17.730Z,11.86
2022-11-17T04:08:44.935Z,12.23
2022-11-17T04:11:31.005Z,11.75
2022-11-17T04:14:16.674Z,11.33
2022-11-17T04:16:44.142Z,11.49
2022-11-17T04:19:11.331Z,12.03
2022-11-17T04:21:38.561Z,12.18
2022-11-17T04:24:06.304Z,12.31
2022-11-17T04:26:52.422Z,12.34
2022-11-17T04:29:19.999Z,12.56
2022-11-17T04:31:47.239Z,12.62
2022-11-17T04:34:14.395Z,12.59
2022-11-17T04:36:45.216Z,12.38
2022-11-17T04:39:13.044Z,12.46
2022-11-17T04:42:03.081Z,12.69
2022-11-17T04:44:31.509Z,12.48
2022-11-17T04:46:58.827Z,12.04
2022-11-17T04:49:26.194Z,12.33
2022-11-17T04:51:53.744Z,11.84
2022-11-17T04:54:22.162Z,11.53
2022-11-17T04:56:49.363Z,11.48
2022-11-17T04:59:16.935Z,11.87
2022-11-17T05:01:44.217Z,11.88
2022-11-17T05:04:12.358Z,11.93
2022-11-17T05:06:41.232Z,11.99
2022-11-17T05:09:12.158Z,12.10
2022-11-17T05:11:58.675Z,12.02
2022-11-17T05:14:26.333Z,12.00
2022-11-17T05:17:10.506Z,12.16
2022-11-17T05:19:38.296Z,12.29
2022-11-17T05:22:28.689Z,12.43
2022-11-17T05:24:56.083Z,12.56
2022-11-17T05:27:23.982Z,12.67
2022-11-17T05:29:51.339Z,12.69
2022-11-17T05:32:18.545Z,12.70
2022-11-17T05:34:45.977Z,12.69
2022-11-17T05:37:13.182Z,12.76
2022-11-17T05:39:40.454Z,12.52
2022-11-17T05:42:08.000Z,12.55
2022-11-17T05:44:35.213Z,12.18
2022-11-17T05:47:02.408Z,12.49
2022-11-17T05:49:29.933Z,12.35
2022-11-17T05:51:57.091Z,12.35
2022-11-17T05:54:24.330Z,12.19
2022-11-17T05:56:51.949Z,12.33
2022-11-17T05:59:38.084Z,12.44
2022-11-17T06:02:10.236Z,12.43
2022-11-17T06:04:38.179Z,12.47
2022-11-17T06:07:05.443Z,12.48
2022-11-17T06:09:33.241Z,11.99
2022-11-17T06:12:05.613Z,12.28
2022-11-17T06:14:34.270Z,11.95
2022-11-17T06:17:22.794Z,11.94
2022-11-17T06:19:55.187Z,11.99
2022-11-17T06:22:22.824Z,12.08
2022-11-17T06:24:50.116Z,12.26
2022-11-17T06:27:17.523Z,12.42
2022-11-17T06:29:45.343Z,12.25
2022-11-17T06:32:13.620Z,12.43
2022-11-17T06:34:41.435Z,12.62
2022-11-17T06:37:08.892Z,12.74
2022-11-17T06:39:36.070Z,12.83
2022-11-17T06:42:03.333Z,12.72
2022-11-17T06:44:30.852Z,12.87
2022-11-17T06:46:58.080Z,12.63
2022-11-17T06:49:25.227Z,12.67
2022-11-17T06:51:53.135Z,11.77
2022-11-17T06:54:20.414Z,12.01
2022-11-17T06:56:49.694Z,12.22
2022-11-17T06:59:17.275Z,12.53
2022-11-17T07:01:44.508Z,12.98
2022-11-17T07:04:11.779Z,12.94
2022-11-17T07:06:39.398Z,13.27
2022-11-17T07:09:06.670Z,12.89
2022-11-17T07:11:34.610Z,13.09
2022-11-17T07:14:02.180Z,13.55
2022-11-17T07:16:30.794Z,13.34
2022-11-17T07:18:59.323Z,13.07
2022-11-17T07:21:26.952Z,12.71
2022-11-17T07:23:54.158Z,12.42
2022-11-17T07:26:21.405Z,12.31
2022-11-17T07:28:48.897Z,12.07
2022-11-17T07:31:16.691Z,12.03
2022-11-17T07:33:43.924Z,12.02
2022-11-17T07:36:12.305Z,12.03
2022-11-17T07:38:40.172Z,11.93
2022-11-17T07:41:08.858Z,11.95
2022-11-17T07:43:36.666Z,12.17
2022-11-17T07:46:04.484Z,12.33
2022-11-17T07:48:32.759Z,12.07
2022-11-17T07:51:00.558Z,11.52
2022-11-17T07:53:28.095Z,11.65
2022-11-17T07:55:55.554Z,11.69
2022-11-17T07:58:25.563Z,11.42
2022-11-17T08:00:53.575Z,11.42
2022-11-17T08:03:21.100Z,11.82
2022-11-17T08:05:48.367Z,11.77
2022-11-17T08:08:15.623Z,11.86
2022-11-17T08:10:43.159Z,12.04
2022-11-17T08:13:11.363Z,12.16
2022-11-17T08:15:38.557Z,11.99
2022-11-17T08:18:06.354Z,11.82
2022-11-17T08:20:33.893Z,11.89
2022-11-17T08:23:01.096Z,11.95
2022-11-17T08:25:28.588Z,11.78
2022-11-17T08:27:56.257Z,11.80
2022-11-17T08:30:24.018Z,12.14
2022-11-17T08:32:52.598Z,12.35
2022-11-17T08:35:21.165Z,12.46
2022-11-17T08:37:48.422Z,12.63
2022-11-17T08:40:15.995Z,12.28
2022-11-17T08:42:43.207Z,12.63
2022-11-17T08:45:10.747Z,12.45
2022-11-17T08:47:38.220Z,12.64
2022-11-17T08:50:05.929Z,12.74
2022-11-17T08:52:33.207Z,12.64
2022-11-17T08:55:00.808Z,12.04
2022-11-17T08:57:31.623Z,12.28
2022-11-17T08:59:58.943Z,12.56
2022-11-17T09:02:26.410Z,12.75
2022-11-17T09:04:53.711Z,12.78
2022-11-17T09:07:20.972Z,12.95
2022-11-17T09:09:48.710Z,12.72
2022-11-17T09:12:16.128Z,12.48
2022-11-17T09:14:43.828Z,12.61
2022-11-17T09:17:11.257Z,12.37
2022-11-17T09:19:38.440Z,12.58
2022-11-17T09:22:06.282Z,12.82
2022-11-17T09:24:33.786Z,12.99
2022-11-17T09:27:03.021Z,13.48
2022-11-17T09:29:30.454Z,13.47
2022-11-17T09:31:58.007Z,13.55
2022-11-17T09:34:25.664Z,13.77
2022-11-17T09:36:52.889Z,13.78
2022-11-17T09:39:21.429Z,13.89
2022-11-17T09:41:49.742Z,14.03
2022-11-17T09:44:20.015Z,13.45
2022-11-17T09:47:06.155Z,13.40
2022-11-17T09:49:42.564Z,13.65
2022-11-17T09:52:12.815Z,13.92
2022-11-17T09:54:43.886Z,13.68
2022-11-17T09:57:21.360Z,13.95
2022-11-17T09:59:49.973Z,13.61
2022-11-17T10:02:17.548Z,13.98
2022-11-17T10:04:45.019Z,14.49
2022-11-17T10:07:12.240Z,15.12
2022-11-17T10:09:41.680Z,15.31
2022-11-17T10:12:20.229Z,15.36
2022-11-17T10:14:50.693Z,14.94
2022-11-17T10:17:18.363Z,15.45
2022-11-17T10:19:45.593Z,15.77
2022-11-17T10:22:16.678Z,15.71
2022-11-17T10:24:47.598Z,15.91
2022-11-17T10:27:17.973Z,15.86
2022-11-17T10:29:58.700Z,15.37
2022-11-17T10:32:26.700Z,15.60
2022-11-17T10:34:55.144Z,15.45
2022-11-17T10:37:27.031Z,15.60
2022-11-17T10:40:09.205Z,15.62
2022-11-17T10:42:36.769Z,15.87
2022-11-17T10:45:04.382Z,15.53
2022-11-17T10:47:39.152Z,15.60
2022-11-17T10:50:12.358Z,15.75
2022-11-17T10:52:39.597Z,15.98
2022-11-17T10:55:22.539Z,15.74
2022-11-17T10:57:57.165Z,15.49
2022-11-17T11:00:28.471Z,15.67
2022-11-17T11:03:06.529Z,15.26
2022-11-17T11:05:33.997Z,15.47
2022-11-17T11:08:15.139Z,15.64
2022-11-17T11:10:42.582Z,15.35
2022-11-17T11:13:12.813Z,15.10
2022-11-17T11:15:40.168Z,15.67
2022-11-17T11:18:11.813Z,15.19
2022-11-17T11:20:59.895Z,15.26
2022-11-17T11:23:31.371Z,15.24
2022-11-17T11:26:11.253Z,15.07
2022-11-17T11:28:44.325Z,15.65
2022-11-17T11:31:33.379Z,15.18
2022-11-17T11:34:05.709Z,15.25
2022-11-17T11:36:53.143Z,15.15
2022-11-17T11:39:35.979Z,15.19
2022-11-17T11:42:07.784Z,15.57
2022-11-17T11:44:47.545Z,15.72
2022-11-17T11:47:33.757Z,14.51
2022-11-17T11:50:13.381Z,15.27
2022-11-17T11:52:40.862Z,15.27
2022-11-17T11:55:27.195Z,15.31
2022-11-17T11:58:00.490Z,15.65
2022-11-17T12:00:27.988Z,15.59
2022-11-17T12:03:18.805Z,15.58
2022-11-17T12:05:46.088Z,15.66
2022-11-17T12:08:28.920Z,15.92
2022-11-17T12:11:25.200Z,16.07
2022-11-17T12:13:54.441Z,15.43
2022-11-17T12:16:29.234Z,15.63
2022-11-17T12:18:56.739Z,15.76
2022-11-17T12:21:24.783Z,15.80
2022-11-17T12:24:08.412Z,15.28
2022-11-17T12:26:36.502Z,15.84
2022-11-17T12:29:22.206Z,16.18
2022-11-17T12:31:49.681Z,16.13
2022-11-17T12:34:23.074Z,16.27
2022-11-17T12:37:23.107Z,16.10
2022-11-17T12:40:00.412Z,16.16
2022-11-17T12:42:28.539Z,16.38
2022-11-17T12:44:56.823Z,16.23
2022-11-17T12:47:24.975Z,15.90
2022-11-17T12:49:52.535Z,16.09
2022-11-17T12:52:45.888Z,16.35
2022-11-17T12:55:28.548Z,15.95
2022-11-17T12:58:16.007Z,16.22
2022-11-17T13:00:52.868Z,16.16
2022-11-17T13:03:26.420Z,16.32
2022-11-17T13:06:33.808Z,16.33
2022-11-17T13:09:01.057Z,16.34
2022-11-17T13:11:28.876Z,16.24
2022-11-17T13:14:08.779Z,16.36
2022-11-17T13:16:37.433Z,16.14
2022-11-17T13:19:21.681Z,16.29
2022-11-17T13:21:49.202Z,16.15
2022-11-17T13:24:28.083Z,16.21
2022-11-17T13:26:59.560Z,16.37
2022-11-17T13:29:26.838Z,16.52
2022-11-17T13:32:13.709Z,16.47
2022-11-17T13:34:48.353Z,16.35
2022-11-17T13:37:18.390Z,16.45
2022-11-17T13:39:55.758Z,16.75
2022-11-17T13:42:23.626Z,16.66
2022-11-17T13:44:51.138Z,16.66
2022-11-17T13:47:28.510Z,16.77
2022-11-17T13:49:56.011Z,16.85
2022-11-17T13:52:46.934Z,16.61
2022-11-17T13:55:16.375Z,16.92
2022-11-17T13:57:51.556Z,16.97
2022-11-17T14:00:19.161Z,16.93
2022-11-17T14:02:57.076Z,16.93
2022-11-17T14:05:26.599Z,16.86
2022-11-17T14:07:54.629Z,16.94
2022-11-17T14:10:21.919Z,16.95
2022-11-17T14:12:49.693Z,17.09
2022-11-17T14:15:23.306Z,17.10
2022-11-17T14:17:51.011Z,17.11
2022-11-17T14:20:38.885Z,16.86
2022-11-17T14:23:09.083Z,16.92
2022-11-17T14:25:40.280Z,17.04
2022-11-17T14:28:14.390Z,16.88
2022-11-17T14:30:41.995Z,16.90
2022-11-17T14:33:13.334Z,16.94
2022-11-17T14:35:41.137Z,17.16
2022-11-17T14:38:15.782Z,17.16
2022-11-17T14:40:42.978Z,17.22
2022-11-17T14:43:10.452Z,17.30
2022-11-17T14:45:37.680Z,17.33
2022-11-17T14:48:07.938Z,17.32
2022-11-17T14:50:35.426Z,17.27
2022-11-17T14:53:02.622Z,17.32
2022-11-17T14:55:29.906Z,17.25
2022-11-17T14:57:57.405Z,17.33
2022-11-17T15:00:24.594Z,17.35
2022-11-17T15:02:51.792Z,17.34
2022-11-17T15:05:19.315Z,17.34
2022-11-17T15:07:46.522Z,17.29
2022-11-17T15:10:13.727Z,17.33
2022-11-17T15:12:41.207Z,17.37
2022-11-17T15:15:08.836Z,17.16
2022-11-17T15:17:36.111Z,17.23
2022-11-17T15:20:04.150Z,17.16
2022-11-17T15:22:31.382Z,17.01
2022-11-17T15:24:58.605Z,17.17
2022-11-17T15:27:26.134Z,17.08
2022-11-17T15:29:54.080Z,17.12
2022-11-17T15:32:21.359Z,17.09
2022-11-17T15:34:48.851Z,17.08
2022-11-17T15:37:16.058Z,17.02
2022-11-17T15:39:43.395Z,16.79
2022-11-17T15:42:10.898Z,16.82
2022-11-17T15:44:38.108Z,16.77
2022-11-17T15:47:06.134Z,16.95
2022-11-17T15:49:33.703Z,16.79
2022-11-17T15:52:00.939Z,16.83
2022-11-17T15:54:28.176Z,16.42
2022-11-17T15:56:55.731Z,16.58
2022-11-17T15:59:22.988Z,16.48
2022-11-17T16:01:50.195Z,16.29
2022-11-17T16:04:18.111Z,16.20
2022-11-17T16:06:45.979Z,16.13
2022-11-17T16:09:13.597Z,15.80
2022-11-17T16:11:41.326Z,16.05
2022-11-17T16:14:08.856Z,15.77
2022-11-17T16:16:37.203Z,15.60
2022-11-17T16:19:04.896Z,15.78
2022-11-17T16:21:32.278Z,16.05
2022-11-17T16:24:00.845Z,16.27
2022-11-17T16:26:28.568Z,15.94
2022-11-17T16:28:56.764Z,16.05
2022-11-17T16:31:24.783Z,15.87
2022-11-17T16:33:53.503Z,15.81
2022-11-17T16:36:21.855Z,15.48
2022-11-17T16:39:01.778Z,15.50
2022-11-17T16:41:31.353Z,15.31
2022-11-17T16:43:58.817Z,15.22
2022-11-17T16:46:27.140Z,15.00
2022-11-17T16:48:54.676Z,14.43
2022-11-17T16:51:21.966Z,14.14
2022-11-17T16:53:54.749Z,14.47
2022-11-17T16:56:22.290Z,14.57
2022-11-17T16:58:50.193Z,14.06
2022-11-17T17:01:24.495Z,13.75
2022-11-17T17:03:58.594Z,12.73
2022-11-17T17:06:26.058Z,12.90
2022-11-17T17:08:57.970Z,13.39
2022-11-17T17:11:25.465Z,13.46
2022-11-17T17:13:52.699Z,12.87
2022-11-17T17:16:20.517Z,12.77
2022-11-17T17:18:47.757Z,12.97
2022-11-17T17:21:16.079Z,13.21
2022-11-17T17:23:45.241Z,13.10
2022-11-17T17:26:18.208Z,12.99
2022-11-17T17:28:46.379Z,13.08
2022-11-17T17:31:20.772Z,13.24
2022-11-17T17:33:50.507Z,13.31
2022-11-17T17:36:18.623Z,14.02
2022-11-17T17:38:50.308Z,14.05
2022-11-17T17:41:22.430Z,14.00
2022-11-17T17:43:54.076Z,14.16
2022-11-17T17:46:21.663Z,14.22
2022-11-17T17:48:49.516Z,14.59
2022-11-17T17:51:18.259Z,14.76
2022-11-17T17:53:46.400Z,14.76
2022-11-17T17:56:14.132Z,14.48
2022-11-17T17:58:41.541Z,13.84
2022-11-17T18:01:14.127Z,13.11
2022-11-17T18:03:48.392Z,13.40
2022-11-17T18:06:16.664Z,13.58
2022-11-17T18:08:44.491Z,14.02
2022-11-17T18:11:12.704Z,14.49
2022-11-17T18:13:41.517Z,14.33
2022-11-17T18:16:13.503Z,14.44
2022-11-17T18:18:41.071Z,14.33
2022-11-17T18:21:09.605Z,13.97
2022-11-17T18:23:37.683Z,14.52
2022-11-17T18:26:12.182Z,13.75
2022-11-17T18:28:39.806Z,13.69
2022-11-17T18:31:08.158Z,13.79
2022-11-17T18:33:35.765Z,13.68
2022-11-17T18:36:04.344Z,13.15
2022-11-17T18:38:31.942Z,13.28
2022-11-17T18:41:03.355Z,12.76
2022-11-17T18:43:31.702Z,13.01
2022-11-17T18:46:03.130Z,12.13
2022-11-17T18:48:34.737Z,12.48
2022-11-17T18:51:19.070Z,11.86
2022-11-17T18:53:47.617Z,12.09
2022-11-17T18:56:15.905Z,11.77
2022-11-17T18:58:43.487Z,11.72
2022-11-17T19:01:14.053Z,11.60
2022-11-17T19:03:42.390Z,11.52
2022-11-17T19:06:09.851Z,11.74
2022-11-17T19:08:37.649Z,11.35
2022-11-17T19:11:06.357Z,11.92
2022-11-17T19:13:35.062Z,11.84
2022-11-17T19:16:06.382Z,11.31
2022-11-17T19:18:33.892Z,11.41
2022-11-17T19:21:04.955Z,11.55
2022-11-17T19:23:33.675Z,11.80
2022-11-17T19:26:08.444Z,11.95
2022-11-17T19:28:36.470Z,12.06
2022-11-17T19:31:07.572Z,11.98
2022-11-17T19:33:35.625Z,11.83
2022-11-17T19:36:07.396Z,11.68
2022-11-17T19:38:35.202Z,11.98
2022-11-17T19:41:03.718Z,12.15
2022-11-17T19:43:32.578Z,11.87
2022-11-17T19:46:01.002Z,11.43
2022-11-17T19:48:29.656Z,11.47
2022-11-17T19:50:57.395Z,11.61
2022-11-17T19:53:24.913Z,12.22
2022-11-17T19:55:52.838Z,12.49
2022-11-17T19:58:20.618Z,12.29
2022-11-17T20:00:48.953Z,12.95
2022-11-17T20:03:16.552Z,13.32
2022-11-17T20:05:44.269Z,13.16
2022-11-17T20:08:11.889Z,12.98
2022-11-17T20:10:39.498Z,13.58
2022-11-17T20:13:06.914Z,12.92
2022-11-17T20:15:35.103Z,13.69
2022-11-17T20:18:02.879Z,13.83
2022-11-17T20:20:30.235Z,12.96
2022-11-17T20:22:57.571Z,13.43
2022-11-17T20:25:25.378Z,13.83
2022-11-17T20:27:52.846Z,13.98
2022-11-17T20:30:20.460Z,14.12
2022-11-17T20:32:48.179Z,14.19
2022-11-17T20:35:15.587Z,14.32
2022-11-17T20:37:42.986Z,14.39
2022-11-17T20:40:11.349Z,14.30
2022-11-17T20:42:38.635Z,14.44
2022-11-17T20:45:06.384Z,14.52
2022-11-17T20:47:34.412Z,14.57
2022-11-17T20:50:01.772Z,14.60
2022-11-17T20:52:29.216Z,14.43
2022-11-17T20:54:56.810Z,14.70
2022-11-17T20:57:24.057Z,14.60
2022-11-17T20:59:51.359Z,14.27
2022-11-17T21:02:18.856Z,14.52
2022-11-17T21:04:46.089Z,14.61
2022-11-17T21:07:13.701Z,14.71
2022-11-17T21:09:41.195Z,14.75
2022-11-17T21:12:08.618Z,14.80
2022-11-17T21:14:35.926Z,14.87
2022-11-17T21:17:03.727Z,14.84
2022-11-17T21:19:32.415Z,14.81
2022-11-17T21:22:01.523Z,14.80
2022-11-17T21:24:29.174Z,14.81
2022-11-17T21:26:56.960Z,14.67
2022-11-17T21:29:24.185Z,14.84
2022-11-17T21:31:51.708Z,14.82
2022-11-17T21:34:19.096Z,14.76
2022-11-17T21:36:46.421Z,14.63
2022-11-17T21:39:18.446Z,14.75
2022-11-17T21:41:46.120Z,14.74
2022-11-17T21:44:14.245Z,14.70
2022-11-17T21:46:41.534Z,14.47
2022-11-17T21:49:08.849Z,14.50
2022-11-17T21:51:38.625Z,14.38
2022-11-17T21:54:07.317Z,14.62
2022-11-17T21:56:36.510Z,14.52
2022-11-17T21:59:04.935Z,14.54
2022-11-17T22:01:32.903Z,14.49
2022-11-17T22:04:00.549Z,14.52
2022-11-17T22:06:28.094Z,14.55
2022-11-17T22:08:55.613Z,14.53
2022-11-17T22:11:36.668Z,14.38
2022-11-17T22:14:14.408Z,14.44
2022-11-17T22:16:42.656Z,14.44
2022-11-17T22:19:10.276Z,14.39
2022-11-17T22:21:37.909Z,14.48
2022-11-17T22:24:06.143Z,14.42
2022-11-17T22:26:35.840Z,14.42
2022-11-17T22:29:03.119Z,14.40
2022-11-17T22:31:30.609Z,14.41
2022-11-17T22:33:57.826Z,14.41
2022-11-17T22:36:25.052Z,14.34
2022-11-17T22:38:52.668Z,14.33
2022-11-17T22:41:20.747Z,14.27
2022-11-17T22:43:51.492Z,14.28
2022-11-17T22:46:19.445Z,14.18
2022-11-17T22:48:46.841Z,14.10
2022-11-17T22:51:34.374Z,14.07
2022-11-17T22:54:01.905Z,14.04
2022-11-17T22:56:29.137Z,13.88
2022-11-17T22:58:59.684Z,13.99
2022-11-17T23:01:27.527Z,13.93
2022-11-17T23:03:54.802Z,13.95
2022-11-17T23:06:24.754Z,13.89
2022-11-17T23:08:52.221Z,13.79
2022-11-17T23:11:36.433Z,13.76
2022-11-17T23:14:05.577Z,13.56
2022-11-17T23:16:33.255Z,13.47
2022-11-17T23:19:00.522Z,13.49
2022-11-17T23:21:28.061Z,13.52
2022-11-17T23:23:55.381Z,13.63
2022-11-17T23:26:22.742Z,13.64
2022-11-17T23:28:50.267Z,13.44
2022-11-17T23:31:17.690Z,13.68
2022-11-17T23:33:45.539Z,13.46
2022-11-17T23:36:14.113Z,13.65
2022-11-17T23:38:41.321Z,13.68
2022-11-17T23:41:09.458Z,13.73
2022-11-17T23:43:36.939Z,13.70
2022-11-17T23:46:04.789Z,13.87
2022-11-17T23:48:31.993Z,13.73
2022-11-17T23:50:59.501Z,13.73
2022-11-17T23:53:26.674Z,13.78
2022-11-17T23:55:54.574Z,13.86
2022-11-17T23:58:22.222Z,13.80
